createdAt,value
2019-05-25T00:00:30.570Z,18.50
2019-05-25T00:02:36.910Z,18.50
2019-05-25T00:04:41.566Z,18.50
2019-05-25T00:06:46.255Z,18.50
2019-05-25T00:08:50.939Z,18.40
2019-05-25T00:10:55.642Z,18.40
2019-05-25T00:13:00.326Z,18.40
2019-05-25T00:15:06.715Z,18.40
2019-05-25T00:17:12.362Z,18.40
2019-05-25T00:19:17.049Z,18.30
2019-05-25T00:21:21.721Z,18.20
2019-05-25T00:23:26.483Z,18.20
2019-05-25T00:25:31.226Z,18.20
2019-05-25T00:27:35.936Z,18.20
2019-05-25T00:29:40.755Z,18.20
2019-05-25T00:31:45.488Z,18.10
2019-05-25T00:33:50.397Z,18.10
2019-05-25T00:35:55.433Z,18.10
2019-05-25T00:38:00.275Z,18.10
2019-05-25T00:40:06.642Z,18.10
2019-05-25T00:42:11.415Z,18.00
2019-05-25T00:44:16.156Z,18.00
2019-05-25T00:46:20.891Z,18.00
2019-05-25T00:48:25.801Z,18.00
2019-05-25T00:50:30.469Z,17.90
2019-05-25T00:52:35.158Z,17.90
2019-05-25T00:54:39.911Z,17.90
2019-05-25T00:56:44.878Z,17.80
2019-05-25T00:58:50.705Z,17.80
2019-05-25T01:00:55.460Z,17.80
2019-05-25T01:03:00.244Z,17.80
2019-05-25T01:05:05.033Z,17.70
2019-05-25T01:07:09.694Z,17.70
2019-05-25T01:09:14.375Z,17.70
2019-05-25T01:11:19.134Z,17.70
2019-05-25T01:13:23.840Z,17.70
2019-05-25T01:15:28.502Z,17.60
2019-05-25T01:17:33.453Z,17.60
2019-05-25T01:19:38.295Z,17.60
2019-05-25T01:21:42.966Z,17.50
2019-05-25T01:23:47.822Z,17.50
2019-05-25T01:25:52.551Z,17.50
2019-05-25T01:27:57.219Z,17.50
2019-05-25T01:30:01.954Z,17.40
2019-05-25T01:32:26.047Z,17.40
2019-05-25T01:34:30.829Z,17.40
2019-05-25T01:36:55.015Z,17.40
2019-05-25T01:38:59.768Z,17.30
2019-05-25T01:41:04.443Z,17.30
2019-05-25T01:43:09.179Z,17.30
2019-05-25T01:45:13.945Z,17.30
2019-05-25T01:47:20.608Z,17.20
2019-05-25T01:49:25.907Z,17.20
2019-05-25T01:51:30.661Z,17.20
2019-05-25T01:53:35.322Z,17.10
2019-05-25T01:55:41.149Z,17.10
2019-05-25T01:57:45.826Z,17.10
2019-05-25T01:59:50.548Z,17.10
2019-05-25T02:01:55.268Z,17.00
2019-05-25T02:04:00.039Z,17.00
2019-05-25T02:06:04.703Z,17.00
2019-05-25T02:08:09.471Z,17.00
2019-05-25T02:10:33.640Z,17.00
2019-05-25T02:12:39.228Z,16.90
2019-05-25T02:14:43.964Z,16.90
2019-05-25T02:16:48.736Z,16.90
2019-05-25T02:18:53.479Z,16.90
2019-05-25T02:20:58.813Z,16.80
2019-05-25T02:23:03.558Z,16.80
2019-05-25T02:25:17.608Z,16.80
2019-05-25T02:27:14.968Z,16.80
2019-05-25T02:29:19.630Z,16.80
2019-05-25T02:31:24.327Z,16.80
2019-05-25T02:33:29.066Z,16.80
2019-05-25T02:35:35.488Z,16.70
2019-05-25T02:37:40.173Z,16.70
2019-05-25T02:39:44.847Z,16.70
2019-05-25T02:41:49.541Z,16.70
2019-05-25T02:43:54.221Z,16.60
2019-05-25T02:45:58.981Z,16.60
2019-05-25T02:48:03.717Z,16.60
2019-05-25T02:50:08.486Z,16.60
2019-05-25T02:52:13.257Z,16.60
2019-05-25T02:54:17.922Z,16.50
2019-05-25T02:56:22.687Z,16.50
2019-05-25T02:58:28.454Z,16.50
2019-05-25T03:00:34.266Z,16.50
2019-05-25T03:02:39.468Z,16.50
2019-05-25T03:04:45.200Z,16.50
2019-05-25T03:06:51.397Z,16.40
2019-05-25T03:08:56.055Z,16.40
2019-05-25T03:11:00.741Z,16.40
2019-05-25T03:13:05.708Z,16.40
2019-05-25T03:15:10.729Z,16.40
2019-05-25T03:17:15.400Z,16.40
2019-05-25T03:19:21.070Z,16.40
2019-05-25T03:21:25.770Z,16.30
2019-05-25T03:23:30.529Z,16.30
2019-05-25T03:25:48.618Z,16.30
2019-05-25T03:27:41.655Z,16.20
2019-05-25T03:29:46.388Z,16.20
2019-05-25T03:31:51.051Z,16.20
2019-05-25T03:33:55.847Z,16.20
2019-05-25T03:36:02.132Z,16.20
2019-05-25T03:38:06.833Z,16.10
2019-05-25T03:40:11.554Z,16.10
2019-05-25T03:42:16.294Z,16.10
2019-05-25T03:44:21.133Z,16.10
2019-05-25T03:46:25.852Z,16.00
2019-05-25T03:48:30.559Z,16.00
2019-05-25T03:50:35.284Z,16.00
2019-05-25T03:52:39.970Z,16.10
2019-05-25T03:54:45.049Z,16.00
2019-05-25T03:56:49.794Z,16.00
2019-05-25T03:58:54.504Z,16.00
2019-05-25T04:00:59.170Z,16.00
2019-05-25T04:03:03.990Z,16.00
2019-05-25T04:05:08.715Z,16.00
2019-05-25T04:07:13.379Z,16.00
2019-05-25T04:09:18.142Z,16.00
2019-05-25T04:11:22.909Z,15.90
2019-05-25T04:13:27.585Z,15.90
2019-05-25T04:15:32.273Z,15.90
2019-05-25T04:17:36.939Z,16.00
2019-05-25T04:19:41.634Z,15.90
2019-05-25T04:21:46.370Z,15.90
2019-05-25T04:23:51.141Z,15.90
2019-05-25T04:25:55.877Z,15.90
2019-05-25T04:28:00.537Z,15.90
2019-05-25T04:30:06.052Z,15.90
2019-05-25T04:32:10.714Z,15.90
2019-05-25T04:34:15.419Z,15.90
2019-05-25T04:36:20.092Z,15.90
2019-05-25T04:38:24.827Z,15.90
2019-05-25T04:40:29.585Z,15.90
2019-05-25T04:42:34.242Z,15.90
2019-05-25T04:44:39.047Z,15.80
2019-05-25T04:46:43.781Z,15.80
2019-05-25T04:48:50.047Z,15.80
2019-05-25T04:50:54.723Z,15.80
2019-05-25T04:52:59.418Z,15.80
2019-05-25T04:55:04.957Z,15.70
2019-05-25T04:57:09.738Z,15.80
2019-05-25T04:59:14.471Z,15.80
2019-05-25T05:01:22.282Z,15.70
2019-05-25T05:03:25.636Z,15.70
2019-05-25T05:05:30.401Z,15.70
2019-05-25T05:07:35.145Z,15.70
2019-05-25T05:09:39.908Z,15.70
2019-05-25T05:11:44.569Z,15.70
2019-05-25T05:13:49.269Z,15.80
2019-05-25T05:15:54.033Z,15.80
2019-05-25T05:17:58.700Z,15.80
2019-05-25T05:20:04.923Z,15.80
2019-05-25T05:22:22.221Z,15.80
2019-05-25T05:24:27.015Z,15.90
2019-05-25T05:26:32.140Z,15.90
2019-05-25T05:28:36.870Z,16.00
2019-05-25T05:30:41.621Z,16.10
2019-05-25T05:32:46.347Z,16.10
2019-05-25T05:34:51.073Z,16.20
2019-05-25T05:36:55.866Z,16.20
2019-05-25T05:39:00.580Z,16.30
2019-05-25T05:41:05.392Z,16.40
2019-05-25T05:43:10.670Z,16.40
2019-05-25T05:45:15.338Z,16.50
2019-05-25T05:47:20.406Z,16.60
2019-05-25T05:49:25.090Z,16.70
2019-05-25T05:51:29.963Z,16.80
2019-05-25T05:53:35.639Z,16.90
2019-05-25T05:55:40.381Z,16.90
2019-05-25T05:57:45.067Z,17.00
2019-05-25T05:59:49.814Z,17.10
2019-05-25T06:01:54.628Z,17.10
2019-05-25T06:03:59.374Z,17.20
2019-05-25T06:06:04.047Z,17.20
2019-05-25T06:08:08.749Z,17.20
2019-05-25T06:10:13.401Z,17.30
2019-05-25T06:12:18.091Z,17.30
2019-05-25T06:14:22.776Z,17.30
2019-05-25T06:16:27.599Z,17.30
2019-05-25T06:18:32.296Z,17.30
2019-05-25T06:20:37.038Z,17.30
2019-05-25T06:22:41.750Z,17.30
2019-05-25T06:24:46.467Z,17.30
2019-05-25T06:26:51.278Z,17.30
2019-05-25T06:28:56.043Z,17.30
2019-05-25T06:31:00.712Z,17.30
2019-05-25T06:33:05.417Z,17.30
2019-05-25T06:35:10.084Z,17.30
2019-05-25T06:37:14.749Z,17.30
2019-05-25T06:39:19.479Z,17.30
2019-05-25T06:41:24.144Z,17.30
2019-05-25T06:43:29.012Z,17.30
2019-05-25T06:45:35.489Z,17.30
2019-05-25T06:47:41.178Z,17.30
2019-05-25T06:49:45.871Z,17.40
2019-05-25T06:51:50.627Z,17.40
2019-05-25T06:53:55.383Z,17.40
2019-05-25T06:56:00.113Z,17.50
2019-05-25T06:58:04.903Z,17.50
2019-05-25T07:00:09.980Z,17.60
2019-05-25T07:02:14.725Z,17.60
2019-05-25T07:04:19.433Z,17.70
2019-05-25T07:06:24.162Z,17.80
2019-05-25T07:08:28.920Z,17.90
2019-05-25T07:10:33.571Z,18.00
2019-05-25T07:12:38.252Z,18.10
2019-05-25T07:14:42.946Z,18.30
2019-05-25T07:16:47.614Z,18.40
2019-05-25T07:18:52.312Z,18.50
2019-05-25T07:20:57.078Z,18.70
2019-05-25T07:23:01.913Z,18.90
2019-05-25T07:25:06.745Z,19.00
2019-05-25T07:27:12.146Z,19.20
2019-05-25T07:29:16.824Z,19.30
2019-05-25T07:31:21.487Z,19.50
2019-05-25T07:33:26.151Z,19.60
2019-05-25T07:35:30.959Z,19.80
2019-05-25T07:37:35.623Z,19.90
2019-05-25T07:39:40.311Z,20.00
2019-05-25T07:41:44.971Z,20.20
2019-05-25T07:43:49.722Z,20.30
2019-05-25T07:45:54.503Z,20.50
2019-05-25T07:47:59.187Z,20.60
2019-05-25T07:50:06.441Z,20.80
2019-05-25T07:52:11.110Z,20.90
2019-05-25T07:54:15.769Z,21.10
2019-05-25T07:56:22.163Z,21.10
2019-05-25T07:58:26.916Z,21.10
2019-05-25T08:00:31.603Z,21.10
2019-05-25T08:02:36.336Z,21.20
2019-05-25T08:04:41.086Z,21.10
2019-05-25T08:06:45.923Z,21.10
2019-05-25T08:08:50.591Z,21.00
2019-05-25T08:10:55.282Z,20.90
2019-05-25T08:12:59.982Z,20.90
2019-05-25T08:15:05.576Z,20.80
2019-05-25T08:17:10.284Z,20.80
2019-05-25T08:19:15.022Z,20.70
2019-05-25T08:21:19.705Z,20.60
2019-05-25T08:23:24.425Z,20.60
2019-05-25T08:25:29.110Z,20.50
2019-05-25T08:27:33.906Z,20.40
2019-05-25T08:29:38.581Z,20.40
2019-05-25T08:31:43.278Z,20.30
2019-05-25T08:33:47.968Z,20.30
2019-05-25T08:35:52.641Z,20.20
2019-05-25T08:37:57.336Z,20.20
2019-05-25T08:40:02.021Z,20.10
2019-05-25T08:42:06.833Z,20.10
2019-05-25T08:44:11.572Z,20.10
2019-05-25T08:46:16.325Z,20.00
2019-05-25T08:48:20.990Z,20.00
2019-05-25T08:50:37.769Z,19.90
2019-05-25T08:52:32.059Z,19.90
2019-05-25T08:54:37.789Z,19.90
2019-05-25T08:56:42.785Z,19.90
2019-05-25T08:58:48.778Z,19.80
2019-05-25T09:00:54.729Z,19.80
2019-05-25T09:03:11.983Z,19.80
2019-05-25T09:05:18.177Z,19.70
2019-05-25T09:07:22.882Z,19.70
2019-05-25T09:09:27.626Z,19.70
2019-05-25T09:11:32.366Z,19.60
2019-05-25T09:13:37.065Z,19.60
2019-05-25T09:15:41.733Z,19.60
2019-05-25T09:17:46.481Z,19.60
2019-05-25T09:19:51.361Z,19.60
2019-05-25T09:22:02.749Z,19.60
2019-05-25T09:24:02.627Z,19.60
2019-05-25T09:26:07.379Z,19.60
2019-05-25T09:28:12.057Z,19.60
2019-05-25T09:30:16.752Z,19.60
2019-05-25T09:32:21.487Z,19.70
2019-05-25T09:34:26.182Z,19.70
2019-05-25T09:36:30.917Z,19.70
2019-05-25T09:38:35.689Z,19.70
2019-05-25T09:40:40.437Z,19.80
2019-05-25T09:42:45.197Z,19.80
2019-05-25T09:44:49.951Z,19.80
2019-05-25T09:46:54.720Z,19.80
2019-05-25T09:48:59.462Z,19.90
2019-05-25T09:51:04.165Z,19.90
2019-05-25T09:53:08.893Z,20.00
2019-05-25T09:55:13.707Z,20.00
2019-05-25T09:57:18.368Z,20.00
2019-05-25T09:59:23.070Z,20.00
2019-05-25T10:01:27.763Z,20.10
2019-05-25T10:03:32.529Z,20.10
2019-05-25T10:05:37.197Z,20.10
2019-05-25T10:07:41.929Z,20.10
2019-05-25T10:09:46.632Z,20.10
2019-05-25T10:11:51.378Z,20.20
2019-05-25T10:13:56.061Z,20.20
2019-05-25T10:16:00.727Z,20.20
2019-05-25T10:18:05.385Z,20.20
2019-05-25T10:20:10.159Z,20.30
2019-05-25T10:22:14.838Z,20.30
2019-05-25T10:24:19.540Z,20.30
2019-05-25T10:26:24.230Z,20.30
2019-05-25T10:28:29.059Z,20.40
2019-05-25T10:30:33.756Z,20.40
2019-05-25T10:32:38.434Z,20.40
2019-05-25T10:34:43.195Z,20.40
2019-05-25T10:36:47.929Z,20.40
2019-05-25T10:38:52.603Z,20.40
2019-05-25T10:40:58.605Z,20.50
2019-05-25T10:43:03.522Z,20.50
2019-05-25T10:45:08.346Z,20.50
2019-05-25T10:47:13.045Z,20.50
2019-05-25T10:49:17.706Z,20.50
2019-05-25T10:51:35.188Z,20.60
2019-05-25T10:53:39.854Z,20.60
2019-05-25T10:55:44.570Z,20.70
2019-05-25T10:57:49.298Z,20.70
2019-05-25T10:59:53.967Z,20.70
2019-05-25T11:01:58.656Z,20.70
2019-05-25T11:04:03.318Z,20.70
2019-05-25T11:06:10.798Z,20.80
2019-05-25T11:08:15.523Z,20.80
2019-05-25T11:10:20.186Z,20.80
2019-05-25T11:12:26.214Z,20.80
2019-05-25T11:14:31.010Z,20.90
2019-05-25T11:16:35.778Z,20.90
2019-05-25T11:18:40.508Z,20.90
2019-05-25T11:20:45.171Z,20.90
2019-05-25T11:22:49.905Z,20.90
2019-05-25T11:24:54.633Z,20.90
2019-05-25T11:26:59.821Z,20.90
2019-05-25T11:29:04.586Z,20.90
2019-05-25T11:31:09.330Z,20.90
2019-05-25T11:33:13.982Z,21.00
2019-05-25T11:35:18.659Z,21.00
2019-05-25T11:37:24.241Z,21.10
2019-05-25T11:39:28.909Z,21.10
2019-05-25T11:41:33.600Z,21.10
2019-05-25T11:43:38.318Z,21.20
2019-05-25T11:45:45.374Z,21.10
2019-05-25T11:47:49.367Z,21.10
2019-05-25T11:49:54.102Z,21.20
2019-05-25T11:51:58.799Z,21.20
2019-05-25T11:54:03.603Z,21.20
2019-05-25T11:56:08.275Z,21.20
2019-05-25T11:58:12.999Z,21.20
2019-05-25T12:00:25.369Z,21.30
2019-05-25T12:02:25.652Z,21.30
2019-05-25T12:04:30.317Z,21.30
2019-05-25T12:06:34.973Z,21.40
2019-05-25T12:08:39.665Z,21.40
2019-05-25T12:10:44.319Z,21.50
2019-05-25T12:12:49.011Z,21.60
2019-05-25T12:14:53.815Z,21.60
2019-05-25T12:16:58.575Z,21.70
2019-05-25T12:19:03.278Z,21.70
2019-05-25T12:21:08.032Z,21.70
2019-05-25T12:23:12.989Z,21.70
2019-05-25T12:25:17.943Z,21.70
2019-05-25T12:27:22.624Z,21.70
2019-05-25T12:29:27.310Z,21.70
2019-05-25T12:31:31.974Z,21.70
2019-05-25T12:33:37.746Z,21.70
2019-05-25T12:35:45.152Z,21.70
2019-05-25T12:37:48.847Z,21.70
2019-05-25T12:39:53.645Z,21.70
2019-05-25T12:41:58.315Z,21.60
2019-05-25T12:44:03.114Z,21.60
2019-05-25T12:46:07.839Z,21.60
2019-05-25T12:48:12.498Z,21.60
2019-05-25T12:50:17.179Z,21.60
2019-05-25T12:52:21.940Z,21.60
2019-05-25T12:54:26.620Z,21.70
2019-05-25T12:56:31.435Z,21.70
2019-05-25T12:58:36.205Z,21.70
2019-05-25T13:00:55.278Z,21.70
2019-05-25T13:02:48.311Z,21.70
2019-05-25T13:04:53.074Z,21.70
2019-05-25T13:06:57.814Z,21.70
2019-05-25T13:09:02.601Z,21.70
2019-05-25T13:11:09.672Z,21.70
2019-05-25T13:13:13.703Z,21.80
2019-05-25T13:15:18.464Z,21.80
2019-05-25T13:17:23.141Z,21.80
2019-05-25T13:19:27.989Z,21.90
2019-05-25T13:21:32.659Z,21.90
2019-05-25T13:23:37.357Z,21.90
2019-05-25T13:25:42.063Z,21.90
2019-05-25T13:27:46.726Z,21.90
2019-05-25T13:29:51.554Z,21.90
2019-05-25T13:31:56.222Z,21.90
2019-05-25T13:34:00.927Z,21.90
2019-05-25T13:36:05.610Z,21.90
2019-05-25T13:38:10.373Z,21.90
2019-05-25T13:40:15.141Z,21.90
2019-05-25T13:42:19.869Z,21.90
2019-05-25T13:44:24.583Z,21.90
2019-05-25T13:46:29.445Z,21.90
2019-05-25T13:48:34.105Z,21.90
2019-05-25T13:50:38.771Z,21.90
2019-05-25T13:52:43.745Z,21.90
2019-05-25T13:54:48.407Z,21.90
2019-05-25T13:56:53.171Z,21.90
2019-05-25T13:58:57.851Z,21.90
2019-05-25T14:01:04.285Z,21.90
2019-05-25T14:03:08.979Z,22.00
2019-05-25T14:05:13.628Z,22.00
2019-05-25T14:07:18.854Z,22.00
2019-05-25T14:09:23.520Z,21.90
2019-05-25T14:11:28.299Z,22.00
2019-05-25T14:13:32.958Z,21.90
2019-05-25T14:15:37.621Z,21.90
2019-05-25T14:17:42.300Z,21.90
2019-05-25T14:19:47.043Z,21.90
2019-05-25T14:21:51.834Z,21.90
2019-05-25T14:23:56.587Z,21.90
2019-05-25T14:26:01.253Z,21.90
2019-05-25T14:28:05.936Z,21.90
2019-05-25T14:30:10.632Z,21.90
2019-05-25T14:32:15.319Z,21.90
2019-05-25T14:34:20.067Z,22.00
2019-05-25T14:36:24.816Z,22.00
2019-05-25T14:38:29.583Z,22.00
2019-05-25T14:40:34.238Z,22.00
2019-05-25T14:42:38.915Z,22.00
2019-05-25T14:44:43.666Z,22.00
2019-05-25T14:46:48.398Z,22.00
2019-05-25T14:48:53.162Z,22.00
2019-05-25T14:50:57.820Z,22.00
2019-05-25T14:53:02.516Z,22.00
2019-05-25T14:55:08.828Z,22.00
2019-05-25T14:57:13.570Z,22.00
2019-05-25T14:59:19.353Z,22.00
2019-05-25T15:01:24.098Z,22.00
2019-05-25T15:03:28.777Z,22.00
2019-05-25T15:05:33.448Z,22.10
2019-05-25T15:07:38.301Z,22.10
2019-05-25T15:09:42.964Z,22.10
2019-05-25T15:11:47.717Z,22.10
2019-05-25T15:13:52.491Z,22.00
2019-05-25T15:15:57.203Z,22.00
2019-05-25T15:18:01.912Z,22.10
2019-05-25T15:20:07.785Z,22.10
2019-05-25T15:22:13.685Z,22.10
2019-05-25T15:24:19.798Z,22.10
2019-05-25T15:26:26.139Z,22.10
2019-05-25T15:28:31.733Z,22.00
2019-05-25T15:30:37.743Z,22.00
2019-05-25T15:32:44.788Z,22.00
2019-05-25T15:34:51.796Z,22.00
2019-05-25T15:36:57.061Z,22.00
2019-05-25T15:39:03.526Z,22.00
2019-05-25T15:41:09.246Z,22.10
2019-05-25T15:43:14.639Z,22.10
2019-05-25T15:45:19.829Z,22.10
2019-05-25T15:47:24.938Z,22.10
2019-05-25T15:49:33.621Z,22.20
2019-05-25T15:51:38.084Z,22.20
2019-05-25T15:53:43.376Z,22.20
2019-05-25T15:55:50.344Z,22.20
2019-05-25T15:57:56.664Z,22.20
2019-05-25T16:00:02.191Z,22.30
2019-05-25T16:02:07.523Z,22.20
2019-05-25T16:04:12.183Z,22.30
2019-05-25T16:06:16.873Z,22.30
2019-05-25T16:08:21.603Z,22.40
2019-05-25T16:10:26.383Z,22.40
2019-05-25T16:12:31.051Z,22.40
2019-05-25T16:14:35.764Z,22.40
2019-05-25T16:16:40.614Z,22.60
2019-05-25T16:18:45.276Z,22.60
2019-05-25T16:20:50.942Z,22.60
2019-05-25T16:22:55.608Z,22.60
2019-05-25T16:25:00.292Z,22.60
2019-05-25T16:27:06.027Z,22.60
2019-05-25T16:29:10.781Z,22.60
2019-05-25T16:31:15.455Z,22.60
2019-05-25T16:33:20.201Z,22.50
2019-05-25T16:35:24.929Z,22.50
2019-05-25T16:37:29.762Z,22.50
2019-05-25T16:39:34.618Z,22.50
2019-05-25T16:41:39.387Z,22.50
2019-05-25T16:43:44.127Z,22.50
2019-05-25T16:45:48.894Z,22.50
2019-05-25T16:47:53.638Z,22.50
2019-05-25T16:49:58.301Z,22.50
2019-05-25T16:52:02.985Z,22.60
2019-05-25T16:54:07.645Z,22.50
2019-05-25T16:56:12.448Z,22.60
2019-05-25T16:58:17.117Z,22.60
2019-05-25T17:00:29.070Z,22.60
2019-05-25T17:02:34.511Z,22.60
2019-05-25T17:04:39.174Z,22.60
2019-05-25T17:06:43.982Z,22.60
2019-05-25T17:08:48.657Z,22.60
2019-05-25T17:10:53.347Z,22.60
2019-05-25T17:12:58.027Z,22.60
2019-05-25T17:15:03.179Z,22.60
2019-05-25T17:17:09.114Z,22.60
2019-05-25T17:19:13.838Z,22.60
2019-05-25T17:21:18.497Z,22.60
2019-05-25T17:23:23.203Z,22.60
2019-05-25T17:25:28.348Z,22.60
2019-05-25T17:27:33.106Z,22.60
2019-05-25T17:29:39.392Z,22.60
2019-05-25T17:31:44.067Z,22.60
2019-05-25T17:33:48.857Z,22.60
2019-05-25T17:35:53.597Z,22.50
2019-05-25T17:37:58.343Z,22.50
2019-05-25T17:40:04.765Z,22.40
2019-05-25T17:42:09.542Z,22.40
2019-05-25T17:44:14.298Z,22.40
2019-05-25T17:46:18.959Z,22.40
2019-05-25T17:48:23.662Z,22.30
2019-05-25T17:50:28.336Z,22.30
2019-05-25T17:52:33.123Z,22.30
2019-05-25T17:54:37.845Z,22.30
2019-05-25T17:56:42.582Z,22.30
2019-05-25T17:58:47.349Z,22.20
2019-05-25T18:00:52.101Z,22.20
2019-05-25T18:02:56.800Z,22.30
2019-05-25T18:05:01.549Z,22.20
2019-05-25T18:07:06.293Z,22.30
2019-05-25T18:09:11.086Z,22.30
2019-05-25T18:11:15.823Z,22.30
2019-05-25T18:13:20.579Z,22.30
2019-05-25T18:15:25.315Z,22.20
2019-05-25T18:17:29.980Z,22.20
2019-05-25T18:19:34.780Z,22.20
2019-05-25T18:21:39.519Z,22.20
2019-05-25T18:23:45.358Z,22.20
2019-05-25T18:25:50.020Z,22.20
2019-05-25T18:27:54.675Z,22.20
2019-05-25T18:29:59.360Z,22.10
2019-05-25T18:32:04.157Z,22.10
2019-05-25T18:34:21.201Z,22.10
2019-05-25T18:36:15.213Z,22.10
2019-05-25T18:38:19.877Z,22.10
2019-05-25T18:40:24.538Z,22.00
2019-05-25T18:42:30.565Z,22.00
2019-05-25T18:44:35.565Z,22.10
2019-05-25T18:46:40.231Z,22.10
2019-05-25T18:48:44.926Z,22.00
2019-05-25T18:50:49.666Z,22.00
2019-05-25T18:52:54.404Z,22.00
2019-05-25T18:54:59.104Z,22.00
2019-05-25T18:57:08.349Z,22.00
2019-05-25T18:59:10.477Z,22.00
2019-05-25T19:01:15.175Z,21.90
2019-05-25T19:03:19.854Z,21.90
2019-05-25T19:05:26.348Z,21.90
2019-05-25T19:07:31.174Z,21.90
2019-05-25T19:09:35.901Z,21.90
2019-05-25T19:11:40.647Z,21.90
2019-05-25T19:13:46.351Z,21.80
2019-05-25T19:15:51.187Z,21.80
2019-05-25T19:17:55.920Z,21.80
2019-05-25T19:20:00.673Z,21.70
2019-05-25T19:22:05.444Z,21.70
2019-05-25T19:24:10.118Z,21.70
2019-05-25T19:26:14.812Z,21.70
2019-05-25T19:28:19.481Z,21.60
2019-05-25T19:30:24.144Z,21.70
2019-05-25T19:32:28.985Z,21.60
2019-05-25T19:34:33.656Z,21.60
2019-05-25T19:36:38.391Z,21.60
2019-05-25T19:38:43.099Z,21.50
2019-05-25T19:40:47.826Z,21.50
2019-05-25T19:42:52.495Z,21.50
2019-05-25T19:44:57.264Z,21.50
2019-05-25T19:47:01.942Z,21.40
2019-05-25T19:49:06.664Z,21.40
2019-05-25T19:51:11.353Z,21.40
2019-05-25T19:53:16.011Z,21.30
2019-05-25T19:55:20.680Z,21.40
2019-05-25T19:57:25.381Z,21.30
2019-05-25T19:59:30.196Z,21.30
2019-05-25T20:01:34.882Z,21.20
2019-05-25T20:03:39.649Z,21.20
2019-05-25T20:05:44.866Z,21.20
2019-05-25T20:07:49.570Z,21.20
2019-05-25T20:09:54.356Z,21.20
2019-05-25T20:11:59.096Z,21.20
2019-05-25T20:14:04.407Z,21.20
2019-05-25T20:16:10.057Z,21.10
2019-05-25T20:18:14.833Z,21.10
2019-05-25T20:20:19.562Z,21.10
2019-05-25T20:22:24.266Z,21.10
2019-05-25T20:24:29.200Z,21.10
2019-05-25T20:26:33.891Z,21.10
2019-05-25T20:28:38.680Z,21.10
2019-05-25T20:30:44.556Z,21.00
2019-05-25T20:32:49.351Z,21.00
2019-05-25T20:34:54.101Z,21.00
2019-05-25T20:37:00.467Z,21.00
2019-05-25T20:39:07.063Z,21.00
2019-05-25T20:41:11.732Z,21.00
2019-05-25T20:43:16.447Z,21.00
2019-05-25T20:45:21.182Z,21.00
2019-05-25T20:47:25.847Z,21.00
2019-05-25T20:49:31.529Z,21.00
2019-05-25T20:51:36.332Z,21.00
2019-05-25T20:53:41.088Z,20.90
2019-05-25T20:55:45.756Z,20.90
2019-05-25T20:57:51.564Z,20.90
2019-05-25T20:59:56.261Z,20.90
2019-05-25T21:02:00.930Z,20.90
2019-05-25T21:04:05.695Z,20.90
2019-05-25T21:06:10.514Z,20.80
2019-05-25T21:08:15.307Z,20.90
2019-05-25T21:10:20.131Z,20.90
2019-05-25T21:12:24.799Z,20.90
2019-05-25T21:14:29.913Z,20.90
2019-05-25T21:16:34.572Z,20.80
2019-05-25T21:18:39.238Z,20.80
2019-05-25T21:20:44.080Z,20.80
2019-05-25T21:22:48.743Z,20.80
2019-05-25T21:24:53.495Z,20.80
2019-05-25T21:26:58.190Z,20.70
2019-05-25T21:29:02.872Z,20.70
2019-05-25T21:31:07.697Z,20.70
2019-05-25T21:33:12.363Z,20.70
2019-05-25T21:35:17.140Z,20.70
2019-05-25T21:37:21.863Z,20.70
2019-05-25T21:39:26.594Z,20.60
2019-05-25T21:41:31.280Z,20.60
2019-05-25T21:43:35.939Z,20.60
2019-05-25T21:45:40.632Z,20.60
2019-05-25T21:47:45.301Z,20.60
2019-05-25T21:49:50.001Z,20.50
2019-05-25T21:51:54.738Z,20.50
2019-05-25T21:53:59.454Z,20.50
2019-05-25T21:56:04.177Z,20.40
2019-05-25T21:58:09.450Z,20.40
2019-05-25T22:00:15.849Z,20.40
2019-05-25T22:02:34.304Z,20.30
2019-05-25T22:04:39.045Z,20.30
2019-05-25T22:06:44.470Z,20.30
2019-05-25T22:08:49.150Z,20.20
2019-05-25T22:10:53.912Z,20.20
2019-05-25T22:12:58.569Z,20.20
2019-05-25T22:15:04.164Z,20.10
2019-05-25T22:17:09.247Z,20.10
2019-05-25T22:19:13.990Z,20.00
2019-05-25T22:21:18.694Z,20.00
2019-05-25T22:23:23.379Z,20.00
2019-05-25T22:25:28.116Z,20.00
2019-05-25T22:27:32.893Z,19.90
2019-05-25T22:29:38.630Z,19.90
2019-05-25T22:31:43.339Z,19.90
2019-05-25T22:33:48.089Z,19.80
2019-05-25T22:35:53.060Z,19.80
2019-05-25T22:37:57.839Z,19.80
2019-05-25T22:40:02.578Z,19.70
2019-05-25T22:42:07.351Z,19.70
2019-05-25T22:44:12.028Z,19.70
2019-05-25T22:46:16.703Z,19.60
2019-05-25T22:48:21.404Z,19.60
2019-05-25T22:50:26.101Z,19.60
2019-05-25T22:52:30.802Z,19.60
2019-05-25T22:54:35.475Z,19.60
2019-05-25T22:56:40.423Z,19.60
2019-05-25T22:58:45.244Z,19.50
2019-05-25T23:00:50.062Z,19.50
2019-05-25T23:02:54.758Z,19.50
2019-05-25T23:04:59.499Z,19.50
2019-05-25T23:07:04.430Z,19.40
2019-05-25T23:09:09.134Z,19.40
2019-05-25T23:11:13.881Z,19.40
2019-05-25T23:13:18.657Z,19.40
2019-05-25T23:15:23.335Z,19.40
2019-05-25T23:17:28.664Z,19.30
2019-05-25T23:19:33.707Z,19.30
2019-05-25T23:21:38.440Z,19.30
2019-05-25T23:23:43.209Z,19.30
2019-05-25T23:25:47.866Z,19.20
2019-05-25T23:27:52.562Z,19.20
2019-05-25T23:29:57.286Z,19.20
2019-05-25T23:32:01.974Z,19.20
2019-05-25T23:34:06.642Z,19.10
2019-05-25T23:36:11.422Z,19.10
2019-05-25T23:38:16.168Z,19.10
2019-05-25T23:40:21.953Z,19.10
2019-05-25T23:42:26.697Z,19.00
2019-05-25T23:44:31.421Z,19.00
2019-05-25T23:46:36.187Z,19.00
2019-05-25T23:48:40.920Z,19.00
2019-05-25T23:50:45.739Z,18.90
2019-05-25T23:52:50.829Z,18.90
2019-05-25T23:54:55.564Z,18.90
2019-05-25T23:57:00.243Z,18.90
2019-05-25T23:59:05.199Z,18.80
